Terminal Aerodrome Forecast
Issued by NWS Rapid City, SD

Home | Current Version | Previous Version | Graphics & Text | Print | Product List | Glossary On
Versions: 1 2 3 4 5 6 7 8 9 10 11 12 13 14 15 16 17 18
830
FTUS43 KUNR 220520
TAFRAP
TAF
KRAP 220520Z 2206/2306 13011KT P6SM BKN250
     FM222200 10012KT P6SM VCTS SCT070CB BKN150
     FM230200 18010KT P6SM TSRA BKN070CB=

USA.gov is the U.S. government's official web portal to all federal, state and local government web resources and services.